sensor_id;sensor_type;location;lat;lon;timestamp;temperature;humidity
59075;DHT22;44860;53.020;6.738;2023-07-13T00:01:50;16.60;99.90
59075;DHT22;44860;53.020;6.738;2023-07-13T00:04:22;16.60;99.90
59075;DHT22;44860;53.020;6.738;2023-07-13T00:06:48;16.60;99.90
59075;DHT22;44860;53.020;6.738;2023-07-13T00:09:16;16.50;99.90
59075;DHT22;44860;53.020;6.738;2023-07-13T00:11:43;16.50;99.90
59075;DHT22;44860;53.020;6.738;2023-07-13T00:14:10;16.50;99.90
59075;DHT22;44860;53.020;6.738;2023-07-13T00:16:38;16.50;99.90
59075;DHT22;44860;53.020;6.738;2023-07-13T00:19:05;16.50;99.90
59075;DHT22;44860;53.020;6.738;2023-07-13T00:21:30;16.50;99.90
59075;DHT22;44860;53.020;6.738;2023-07-13T00:23:56;16.50;99.90
59075;DHT22;44860;53.020;6.738;2023-07-13T00:26:22;16.50;99.90
59075;DHT22;44860;53.020;6.738;2023-07-13T00:28:48;16.50;99.90
59075;DHT22;44860;53.020;6.738;2023-07-13T00:31:14;16.40;99.90
59075;DHT22;44860;53.020;6.738;2023-07-13T00:33:41;16.40;99.90
59075;DHT22;44860;53.020;6.738;2023-07-13T00:36:08;16.50;99.90
59075;DHT22;44860;53.020;6.738;2023-07-13T00:38:34;16.50;99.90
59075;DHT22;44860;53.020;6.738;2023-07-13T00:41:00;16.40;99.90
59075;DHT22;44860;53.020;6.738;2023-07-13T00:43:27;16.50;99.90
59075;DHT22;44860;53.020;6.738;2023-07-13T00:48:24;16.50;99.90
59075;DHT22;44860;53.020;6.738;2023-07-13T00:50:53;16.50;99.90
59075;DHT22;44860;53.020;6.738;2023-07-13T00:53:20;16.50;99.90
59075;DHT22;44860;53.020;6.738;2023-07-13T00:55:47;16.40;99.90
59075;DHT22;44860;53.020;6.738;2023-07-13T00:58:14;16.40;99.90
59075;DHT22;44860;53.020;6.738;2023-07-13T01:00:41;16.40;99.90
59075;DHT22;44860;53.020;6.738;2023-07-13T01:03:07;16.50;99.90
59075;DHT22;44860;53.020;6.738;2023-07-13T01:05:34;16.40;99.90
59075;DHT22;44860;53.020;6.738;2023-07-13T01:08:01;16.40;99.90
59075;DHT22;44860;53.020;6.738;2023-07-13T01:10:28;16.50;99.90
59075;DHT22;44860;53.020;6.738;2023-07-13T01:12:54;16.50;99.90
59075;DHT22;44860;53.020;6.738;2023-07-13T01:18:14;16.50;99.90
59075;DHT22;44860;53.020;6.738;2023-07-13T01:20:41;16.50;99.90
59075;DHT22;44860;53.020;6.738;2023-07-13T01:23:10;16.50;99.90
59075;DHT22;44860;53.020;6.738;2023-07-13T01:25:37;16.50;99.90
59075;DHT22;44860;53.020;6.738;2023-07-13T01:28:07;16.40;99.90
59075;DHT22;44860;53.020;6.738;2023-07-13T01:30:36;16.40;99.90
59075;DHT22;44860;53.020;6.738;2023-07-13T01:33:03;16.40;99.90
59075;DHT22;44860;53.020;6.738;2023-07-13T01:35:29;16.40;99.90
59075;DHT22;44860;53.020;6.738;2023-07-13T01:37:55;16.40;99.90
59075;DHT22;44860;53.020;6.738;2023-07-13T01:40:22;16.40;99.90
59075;DHT22;44860;53.020;6.738;2023-07-13T01:42:48;16.30;99.90
59075;DHT22;44860;53.020;6.738;2023-07-13T01:45:14;16.30;99.90
59075;DHT22;44860;53.020;6.738;2023-07-13T01:47:40;16.40;99.90
59075;DHT22;44860;53.020;6.738;2023-07-13T01:50:06;16.30;99.90
59075;DHT22;44860;53.020;6.738;2023-07-13T01:52:31;16.30;99.90
59075;DHT22;44860;53.020;6.738;2023-07-13T01:54:57;16.30;99.90
59075;DHT22;44860;53.020;6.738;2023-07-13T01:57:23;16.40;99.90
59075;DHT22;44860;53.020;6.738;2023-07-13T01:59:49;16.40;99.90
59075;DHT22;44860;53.020;6.738;2023-07-13T02:02:14;16.40;99.90
59075;DHT22;44860;53.020;6.738;2023-07-13T02:04:40;16.40;99.90
59075;DHT22;44860;53.020;6.738;2023-07-13T02:07:07;16.40;99.90
59075;DHT22;44860;53.020;6.738;2023-07-13T02:09:33;16.40;99.90
59075;DHT22;44860;53.020;6.738;2023-07-13T02:11:58;16.40;99.90
59075;DHT22;44860;53.020;6.738;2023-07-13T02:14:24;16.40;99.90
59075;DHT22;44860;53.020;6.738;2023-07-13T02:16:50;16.40;99.90
59075;DHT22;44860;53.020;6.738;2023-07-13T02:19:15;16.40;99.90
59075;DHT22;44860;53.020;6.738;2023-07-13T02:21:41;16.40;99.90
59075;DHT22;44860;53.020;6.738;2023-07-13T02:24:07;16.40;99.90
59075;DHT22;44860;53.020;6.738;2023-07-13T02:26:33;16.40;99.90
59075;DHT22;44860;53.020;6.738;2023-07-13T02:28:58;16.40;99.90
59075;DHT22;44860;53.020;6.738;2023-07-13T02:31:24;16.40;99.90
59075;DHT22;44860;53.020;6.738;2023-07-13T02:33:50;16.40;99.90
59075;DHT22;44860;53.020;6.738;2023-07-13T02:36:16;16.40;99.90
59075;DHT22;44860;53.020;6.738;2023-07-13T02:38:42;16.40;99.90
59075;DHT22;44860;53.020;6.738;2023-07-13T02:41:08;16.40;99.90
59075;DHT22;44860;53.020;6.738;2023-07-13T02:43:35;16.30;99.90
59075;DHT22;44860;53.020;6.738;2023-07-13T02:46:02;16.40;99.90
59075;DHT22;44860;53.020;6.738;2023-07-13T02:48:33;16.40;99.90
59075;DHT22;44860;53.020;6.738;2023-07-13T02:50:59;16.40;99.90
59075;DHT22;44860;53.020;6.738;2023-07-13T02:53:25;16.40;99.90
59075;DHT22;44860;53.020;6.738;2023-07-13T02:55:51;16.30;99.90
59075;DHT22;44860;53.020;6.738;2023-07-13T02:58:16;16.40;99.90
59075;DHT22;44860;53.020;6.738;2023-07-13T03:00:46;16.40;99.90
59075;DHT22;44860;53.020;6.738;2023-07-13T03:03:15;16.40;99.90
59075;DHT22;44860;53.020;6.738;2023-07-13T03:05:43;16.30;99.90
59075;DHT22;44860;53.020;6.738;2023-07-13T03:08:10;16.30;99.90
59075;DHT22;44860;53.020;6.738;2023-07-13T03:10:36;16.30;99.90
59075;DHT22;44860;53.020;6.738;2023-07-13T03:13:02;16.30;99.90
59075;DHT22;44860;53.020;6.738;2023-07-13T03:15:29;16.30;99.90
59075;DHT22;44860;53.020;6.738;2023-07-13T03:17:54;16.30;99.90
59075;DHT22;44860;53.020;6.738;2023-07-13T03:20:20;16.20;99.90
59075;DHT22;44860;53.020;6.738;2023-07-13T03:22:46;16.20;99.90
59075;DHT22;44860;53.020;6.738;2023-07-13T03:25:12;16.20;99.90
59075;DHT22;44860;53.020;6.738;2023-07-13T03:27:38;16.20;99.90
59075;DHT22;44860;53.020;6.738;2023-07-13T03:30:05;16.20;99.90
59075;DHT22;44860;53.020;6.738;2023-07-13T03:32:32;16.30;99.90
59075;DHT22;44860;53.020;6.738;2023-07-13T03:34:57;16.20;99.90
59075;DHT22;44860;53.020;6.738;2023-07-13T03:37:23;16.20;99.90
59075;DHT22;44860;53.020;6.738;2023-07-13T03:39:49;16.20;99.90
59075;DHT22;44860;53.020;6.738;2023-07-13T03:42:15;16.20;99.90
59075;DHT22;44860;53.020;6.738;2023-07-13T03:44:42;16.20;99.90
59075;DHT22;44860;53.020;6.738;2023-07-13T03:47:11;16.20;99.90
59075;DHT22;44860;53.020;6.738;2023-07-13T03:49:37;16.20;99.90
59075;DHT22;44860;53.020;6.738;2023-07-13T03:52:03;16.20;99.90
59075;DHT22;44860;53.020;6.738;2023-07-13T03:54:29;16.20;99.90
59075;DHT22;44860;53.020;6.738;2023-07-13T03:56:55;16.20;99.90
59075;DHT22;44860;53.020;6.738;2023-07-13T03:59:21;16.20;99.90
59075;DHT22;44860;53.020;6.738;2023-07-13T04:01:47;16.20;99.90
59075;DHT22;44860;53.020;6.738;2023-07-13T04:04:12;16.20;99.90
59075;DHT22;44860;53.020;6.738;2023-07-13T04:06:38;16.10;99.90
59075;DHT22;44860;53.020;6.738;2023-07-13T04:09:04;16.10;99.90
59075;DHT22;44860;53.020;6.738;2023-07-13T04:11:35;16.10;99.90
59075;DHT22;44860;53.020;6.738;2023-07-13T04:14:04;16.10;99.90
59075;DHT22;44860;53.020;6.738;2023-07-13T04:16:30;16.10;99.90
59075;DHT22;44860;53.020;6.738;2023-07-13T04:18:56;16.10;99.90
59075;DHT22;44860;53.020;6.738;2023-07-13T04:21:26;16.10;99.90
59075;DHT22;44860;53.020;6.738;2023-07-13T04:23:52;16.10;99.90
59075;DHT22;44860;53.020;6.738;2023-07-13T04:26:18;16.00;99.90
59075;DHT22;44860;53.020;6.738;2023-07-13T04:28:47;16.00;99.90
59075;DHT22;44860;53.020;6.738;2023-07-13T04:31:13;16.10;99.90
59075;DHT22;44860;53.020;6.738;2023-07-13T04:33:38;16.10;99.90
59075;DHT22;44860;53.020;6.738;2023-07-13T04:36:05;16.10;99.90
59075;DHT22;44860;53.020;6.738;2023-07-13T04:38:32;16.10;99.90
59075;DHT22;44860;53.020;6.738;2023-07-13T04:41:05;16.10;99.90
59075;DHT22;44860;53.020;6.738;2023-07-13T04:43:32;16.10;99.90
59075;DHT22;44860;53.020;6.738;2023-07-13T04:46:03;16.10;99.90
59075;DHT22;44860;53.020;6.738;2023-07-13T04:48:29;16.10;99.90
59075;DHT22;44860;53.020;6.738;2023-07-13T04:50:56;16.10;99.90
59075;DHT22;44860;53.020;6.738;2023-07-13T04:53:22;16.10;99.90
59075;DHT22;44860;53.020;6.738;2023-07-13T04:55:48;16.10;99.90
59075;DHT22;44860;53.020;6.738;2023-07-13T04:58:14;16.10;99.90
59075;DHT22;44860;53.020;6.738;2023-07-13T05:00:39;16.10;99.90
59075;DHT22;44860;53.020;6.738;2023-07-13T05:03:05;16.20;99.90
59075;DHT22;44860;53.020;6.738;2023-07-13T05:05:31;16.20;99.90
59075;DHT22;44860;53.020;6.738;2023-07-13T05:07:57;16.20;99.90
59075;DHT22;44860;53.020;6.738;2023-07-13T05:10:23;16.30;99.90
59075;DHT22;44860;53.020;6.738;2023-07-13T05:12:49;16.30;99.90
59075;DHT22;44860;53.020;6.738;2023-07-13T05:15:15;16.30;99.90
59075;DHT22;44860;53.020;6.738;2023-07-13T05:17:41;16.40;99.90
59075;DHT22;44860;53.020;6.738;2023-07-13T05:20:08;16.40;99.90
59075;DHT22;44860;53.020;6.738;2023-07-13T05:22:35;16.40;99.90
59075;DHT22;44860;53.020;6.738;2023-07-13T05:25:04;16.40;99.90
59075;DHT22;44860;53.020;6.738;2023-07-13T05:27:30;16.40;99.90
59075;DHT22;44860;53.020;6.738;2023-07-13T05:29:56;16.40;99.90
59075;DHT22;44860;53.020;6.738;2023-07-13T05:32:21;16.40;99.90
59075;DHT22;44860;53.020;6.738;2023-07-13T05:34:47;16.50;99.90
59075;DHT22;44860;53.020;6.738;2023-07-13T05:37:13;16.50;99.90
59075;DHT22;44860;53.020;6.738;2023-07-13T05:39:42;16.60;99.90
59075;DHT22;44860;53.020;6.738;2023-07-13T05:42:07;16.60;99.90
59075;DHT22;44860;53.020;6.738;2023-07-13T05:44:33;16.70;99.90
59075;DHT22;44860;53.020;6.738;2023-07-13T05:46:59;16.70;99.90
59075;DHT22;44860;53.020;6.738;2023-07-13T05:49:24;16.70;99.90
59075;DHT22;44860;53.020;6.738;2023-07-13T05:51:50;16.80;99.90
59075;DHT22;44860;53.020;6.738;2023-07-13T05:54:16;16.90;99.90
59075;DHT22;44860;53.020;6.738;2023-07-13T05:56:42;16.90;99.90
59075;DHT22;44860;53.020;6.738;2023-07-13T05:59:07;17.00;99.90
59075;DHT22;44860;53.020;6.738;2023-07-13T06:01:33;17.00;99.90
59075;DHT22;44860;53.020;6.738;2023-07-13T06:03:59;17.00;99.90
59075;DHT22;44860;53.020;6.738;2023-07-13T06:06:25;17.10;99.90
59075;DHT22;44860;53.020;6.738;2023-07-13T06:08:50;17.20;99.90
59075;DHT22;44860;53.020;6.738;2023-07-13T06:11:22;17.30;99.90
59075;DHT22;44860;53.020;6.738;2023-07-13T06:13:48;17.30;99.90
59075;DHT22;44860;53.020;6.738;2023-07-13T06:16:15;17.40;99.90
59075;DHT22;44860;53.020;6.738;2023-07-13T06:18:42;17.40;99.90
59075;DHT22;44860;53.020;6.738;2023-07-13T06:21:16;17.50;99.90
59075;DHT22;44860;53.020;6.738;2023-07-13T06:23:43;17.50;99.90
59075;DHT22;44860;53.020;6.738;2023-07-13T06:26:09;17.60;99.90
59075;DHT22;44860;53.020;6.738;2023-07-13T06:28:36;17.60;99.90
59075;DHT22;44860;53.020;6.738;2023-07-13T06:31:04;17.70;99.90
59075;DHT22;44860;53.020;6.738;2023-07-13T06:33:30;17.80;99.90
59075;DHT22;44860;53.020;6.738;2023-07-13T06:35:56;17.80;99.90
59075;DHT22;44860;53.020;6.738;2023-07-13T06:38:22;17.90;99.90
59075;DHT22;44860;53.020;6.738;2023-07-13T06:40:47;18.00;99.90
59075;DHT22;44860;53.020;6.738;2023-07-13T06:43:13;18.00;99.90
59075;DHT22;44860;53.020;6.738;2023-07-13T06:45:47;18.10;99.90
59075;DHT22;44860;53.020;6.738;2023-07-13T06:48:18;18.10;99.90
59075;DHT22;44860;53.020;6.738;2023-07-13T06:50:45;18.20;99.90
59075;DHT22;44860;53.020;6.738;2023-07-13T06:53:12;18.30;99.90
59075;DHT22;44860;53.020;6.738;2023-07-13T06:55:38;18.30;99.90
59075;DHT22;44860;53.020;6.738;2023-07-13T06:58:04;18.40;99.90
59075;DHT22;44860;53.020;6.738;2023-07-13T07:00:30;18.50;99.90
59075;DHT22;44860;53.020;6.738;2023-07-13T07:02:56;18.50;99.90
59075;DHT22;44860;53.020;6.738;2023-07-13T07:05:22;18.60;99.90
59075;DHT22;44860;53.020;6.738;2023-07-13T07:07:50;18.70;99.90
59075;DHT22;44860;53.020;6.738;2023-07-13T07:10:16;18.70;99.90
59075;DHT22;44860;53.020;6.738;2023-07-13T07:12:42;18.90;99.90
59075;DHT22;44860;53.020;6.738;2023-07-13T07:15:08;18.90;99.90
59075;DHT22;44860;53.020;6.738;2023-07-13T07:17:33;19.00;99.90
59075;DHT22;44860;53.020;6.738;2023-07-13T07:19:59;19.10;99.90
59075;DHT22;44860;53.020;6.738;2023-07-13T07:22:25;19.20;99.90
59075;DHT22;44860;53.020;6.738;2023-07-13T07:24:53;19.30;99.90
59075;DHT22;44860;53.020;6.738;2023-07-13T07:27:19;19.40;99.90
59075;DHT22;44860;53.020;6.738;2023-07-13T07:29:45;19.50;99.90
59075;DHT22;44860;53.020;6.738;2023-07-13T07:32:11;19.60;99.90
59075;DHT22;44860;53.020;6.738;2023-07-13T07:34:37;19.60;99.90
59075;DHT22;44860;53.020;6.738;2023-07-13T07:37:03;19.70;99.90
59075;DHT22;44860;53.020;6.738;2023-07-13T07:39:29;19.70;99.90
59075;DHT22;44860;53.020;6.738;2023-07-13T07:41:55;19.80;99.90
59075;DHT22;44860;53.020;6.738;2023-07-13T07:44:21;19.80;99.90
59075;DHT22;44860;53.020;6.738;2023-07-13T07:46:47;19.90;99.90
59075;DHT22;44860;53.020;6.738;2023-07-13T07:49:13;19.90;99.90
59075;DHT22;44860;53.020;6.738;2023-07-13T07:51:38;20.00;99.90
59075;DHT22;44860;53.020;6.738;2023-07-13T07:54:04;20.00;99.90
59075;DHT22;44860;53.020;6.738;2023-07-13T07:56:31;20.00;99.90
59075;DHT22;44860;53.020;6.738;2023-07-13T07:58:56;20.00;99.90
59075;DHT22;44860;53.020;6.738;2023-07-13T08:01:23;20.10;99.90
59075;DHT22;44860;53.020;6.738;2023-07-13T08:03:48;20.00;99.90
59075;DHT22;44860;53.020;6.738;2023-07-13T08:06:14;20.00;99.90
59075;DHT22;44860;53.020;6.738;2023-07-13T08:08:40;20.00;99.90
59075;DHT22;44860;53.020;6.738;2023-07-13T08:11:09;20.00;99.90
59075;DHT22;44860;53.020;6.738;2023-07-13T08:13:36;19.80;99.90
59075;DHT22;44860;53.020;6.738;2023-07-13T08:16:04;19.70;99.90
59075;DHT22;44860;53.020;6.738;2023-07-13T08:18:30;19.60;99.90
59075;DHT22;44860;53.020;6.738;2023-07-13T08:20:56;19.40;99.90
59075;DHT22;44860;53.020;6.738;2023-07-13T08:23:22;19.30;99.90
59075;DHT22;44860;53.020;6.738;2023-07-13T08:25:54;19.20;99.90
59075;DHT22;44860;53.020;6.738;2023-07-13T08:28:21;19.20;99.90
59075;DHT22;44860;53.020;6.738;2023-07-13T08:30:47;19.10;99.90
59075;DHT22;44860;53.020;6.738;2023-07-13T08:33:18;19.00;99.90
59075;DHT22;44860;53.020;6.738;2023-07-13T08:35:48;19.00;99.90
59075;DHT22;44860;53.020;6.738;2023-07-13T08:38:15;18.90;99.90
59075;DHT22;44860;53.020;6.738;2023-07-13T08:40:42;18.90;99.90
59075;DHT22;44860;53.020;6.738;2023-07-13T08:43:20;18.80;99.90
59075;DHT22;44860;53.020;6.738;2023-07-13T08:46:54;18.70;99.90
59075;DHT22;44860;53.020;6.738;2023-07-13T08:49:19;18.70;99.90
59075;DHT22;44860;53.020;6.738;2023-07-13T08:52:00;18.50;99.90
59075;DHT22;44860;53.020;6.738;2023-07-13T08:54:44;18.40;99.90
59075;DHT22;44860;53.020;6.738;2023-07-13T08:57:20;18.30;99.90
59075;DHT22;44860;53.020;6.738;2023-07-13T08:59:47;18.20;99.90
59075;DHT22;44860;53.020;6.738;2023-07-13T09:10:30;18.00;99.90
59075;DHT22;44860;53.020;6.738;2023-07-13T09:13:07;17.90;99.90
59075;DHT22;44860;53.020;6.738;2023-07-13T09:15:43;17.90;99.90
59075;DHT22;44860;53.020;6.738;2023-07-13T09:18:23;17.80;99.90
59075;DHT22;44860;53.020;6.738;2023-07-13T09:20:57;17.80;99.90
59075;DHT22;44860;53.020;6.738;2023-07-13T09:23:27;17.70;99.90
59075;DHT22;44860;53.020;6.738;2023-07-13T09:26:06;17.70;99.90
59075;DHT22;44860;53.020;6.738;2023-07-13T09:28:45;17.70;99.90
59075;DHT22;44860;53.020;6.738;2023-07-13T09:31:17;17.70;99.90
59075;DHT22;44860;53.020;6.738;2023-07-13T09:33:44;17.70;99.90
59075;DHT22;44860;53.020;6.738;2023-07-13T09:36:31;17.70;99.90
59075;DHT22;44860;53.020;6.738;2023-07-13T09:46:35;17.70;99.90
59075;DHT22;44860;53.020;6.738;2023-07-13T09:49:01;17.80;99.90
59075;DHT22;44860;53.020;6.738;2023-07-13T09:51:26;17.80;99.90
59075;DHT22;44860;53.020;6.738;2023-07-13T09:53:53;17.80;99.90
59075;DHT22;44860;53.020;6.738;2023-07-13T09:56:27;17.80;99.90
59075;DHT22;44860;53.020;6.738;2023-07-13T09:58:55;17.80;99.90
59075;DHT22;44860;53.020;6.738;2023-07-13T10:01:37;17.80;99.90
59075;DHT22;44860;53.020;6.738;2023-07-13T10:04:17;17.80;99.90
59075;DHT22;44860;53.020;6.738;2023-07-13T10:06:44;17.90;99.90
59075;DHT22;44860;53.020;6.738;2023-07-13T10:09:18;17.90;99.90
59075;DHT22;44860;53.020;6.738;2023-07-13T10:11:44;18.00;99.90
59075;DHT22;44860;53.020;6.738;2023-07-13T10:14:17;18.10;99.90
59075;DHT22;44860;53.020;6.738;2023-07-13T10:16:46;18.20;99.90
59075;DHT22;44860;53.020;6.738;2023-07-13T10:22:00;18.40;99.90
59075;DHT22;44860;53.020;6.738;2023-07-13T10:24:29;18.40;99.90
59075;DHT22;44860;53.020;6.738;2023-07-13T10:29:53;18.70;99.90
59075;DHT22;44860;53.020;6.738;2023-07-13T10:32:22;18.80;99.90
59075;DHT22;44860;53.020;6.738;2023-07-13T10:34:50;18.90;99.90
59075;DHT22;44860;53.020;6.738;2023-07-13T10:37:30;18.90;99.90
59075;DHT22;44860;53.020;6.738;2023-07-13T10:39:59;19.10;99.90
59075;DHT22;44860;53.020;6.738;2023-07-13T10:42:39;19.10;99.90
59075;DHT22;44860;53.020;6.738;2023-07-13T10:45:19;19.20;99.90
59075;DHT22;44860;53.020;6.738;2023-07-13T10:47:46;19.20;99.90
59075;DHT22;44860;53.020;6.738;2023-07-13T10:50:22;19.20;99.90
59075;DHT22;44860;53.020;6.738;2023-07-13T10:52:51;19.10;99.90
59075;DHT22;44860;53.020;6.738;2023-07-13T10:55:54;19.10;99.90
59075;DHT22;44860;53.020;6.738;2023-07-13T10:58:32;19.00;99.90
59075;DHT22;44860;53.020;6.738;2023-07-13T11:01:09;18.90;99.90
59075;DHT22;44860;53.020;6.738;2023-07-13T11:21:31;18.70;99.90
59075;DHT22;44860;53.020;6.738;2023-07-13T11:31:51;19.00;99.90
59075;DHT22;44860;53.020;6.738;2023-07-13T11:34:21;19.20;99.90
59075;DHT22;44860;53.020;6.738;2023-07-13T11:36:49;19.30;99.90
59075;DHT22;44860;53.020;6.738;2023-07-13T11:39:24;19.40;99.90
59075;DHT22;44860;53.020;6.738;2023-07-13T11:41:57;19.60;99.90
59075;DHT22;44860;53.020;6.738;2023-07-13T11:44:25;19.70;99.90
59075;DHT22;44860;53.020;6.738;2023-07-13T11:46:57;19.80;99.90
59075;DHT22;44860;53.020;6.738;2023-07-13T11:49:29;19.90;99.90
59075;DHT22;44860;53.020;6.738;2023-07-13T11:51:56;20.10;99.90
59075;DHT22;44860;53.020;6.738;2023-07-13T11:54:32;20.20;99.90
59075;DHT22;44860;53.020;6.738;2023-07-13T11:57:02;20.40;99.90
59075;DHT22;44860;53.020;6.738;2023-07-13T11:59:32;20.50;99.90
59075;DHT22;44860;53.020;6.738;2023-07-13T12:01:59;20.70;99.90
59075;DHT22;44860;53.020;6.738;2023-07-13T12:04:28;20.80;99.90
59075;DHT22;44860;53.020;6.738;2023-07-13T12:07:14;20.90;99.90
59075;DHT22;44860;53.020;6.738;2023-07-13T12:09:40;21.10;99.90
59075;DHT22;44860;53.020;6.738;2023-07-13T12:12:16;21.20;99.90
59075;DHT22;44860;53.020;6.738;2023-07-13T12:14:43;21.30;99.90
59075;DHT22;44860;53.020;6.738;2023-07-13T12:17:28;21.50;99.90
59075;DHT22;44860;53.020;6.738;2023-07-13T12:19:54;21.70;99.90
59075;DHT22;44860;53.020;6.738;2023-07-13T12:22:20;21.80;99.90
59075;DHT22;44860;53.020;6.738;2023-07-13T12:24:48;21.90;99.90
59075;DHT22;44860;53.020;6.738;2023-07-13T12:27:23;22.10;99.90
59075;DHT22;44860;53.020;6.738;2023-07-13T12:29:52;22.30;99.70
59075;DHT22;44860;53.020;6.738;2023-07-13T12:32:24;22.40;97.90
59075;DHT22;44860;53.020;6.738;2023-07-13T12:35:16;22.60;98.70
59075;DHT22;44860;53.020;6.738;2023-07-13T12:37:45;22.60;95.40
59075;DHT22;44860;53.020;6.738;2023-07-13T12:40:19;22.70;93.80
59075;DHT22;44860;53.020;6.738;2023-07-13T12:42:47;22.70;93.80
59075;DHT22;44860;53.020;6.738;2023-07-13T12:45:25;22.70;94.30
59075;DHT22;44860;53.020;6.738;2023-07-13T12:48:03;22.70;92.90
59075;DHT22;44860;53.020;6.738;2023-07-13T12:50:40;22.80;91.60
59075;DHT22;44860;53.020;6.738;2023-07-13T12:53:14;23.00;87.80
59075;DHT22;44860;53.020;6.738;2023-07-13T12:55:48;23.20;82.90
59075;DHT22;44860;53.020;6.738;2023-07-13T12:58:42;23.30;79.10
59075;DHT22;44860;53.020;6.738;2023-07-13T13:01:10;23.30;68.00
59075;DHT22;44860;53.020;6.738;2023-07-13T13:03:47;23.30;75.00
59075;DHT22;44860;53.020;6.738;2023-07-13T13:08:42;23.10;70.40
59075;DHT22;44860;53.020;6.738;2023-07-13T13:11:09;22.80;63.40
59075;DHT22;44860;53.020;6.738;2023-07-13T13:13:35;22.70;63.70
59075;DHT22;44860;53.020;6.738;2023-07-13T13:16:08;22.60;64.90
59075;DHT22;44860;53.020;6.738;2023-07-13T13:18:34;22.70;66.70
59075;DHT22;44860;53.020;6.738;2023-07-13T13:21:01;22.80;65.80
59075;DHT22;44860;53.020;6.738;2023-07-13T13:23:27;23.00;64.80
59075;DHT22;44860;53.020;6.738;2023-07-13T13:25:53;23.10;63.70
59075;DHT22;44860;53.020;6.738;2023-07-13T13:28:20;23.30;63.80
59075;DHT22;44860;53.020;6.738;2023-07-13T13:30:48;23.40;62.50
59075;DHT22;44860;53.020;6.738;2023-07-13T13:33:18;23.40;60.50
59075;DHT22;44860;53.020;6.738;2023-07-13T13:35:44;23.40;60.30
59075;DHT22;44860;53.020;6.738;2023-07-13T13:38:14;23.30;60.90
59075;DHT22;44860;53.020;6.738;2023-07-13T13:40:44;23.30;59.60
59075;DHT22;44860;53.020;6.738;2023-07-13T13:43:32;23.30;60.70
59075;DHT22;44860;53.020;6.738;2023-07-13T13:45:59;23.20;60.20
59075;DHT22;44860;53.020;6.738;2023-07-13T13:48:33;23.10;60.30
59075;DHT22;44860;53.020;6.738;2023-07-13T13:51:03;23.30;59.40
59075;DHT22;44860;53.020;6.738;2023-07-13T13:53:29;23.30;59.60
59075;DHT22;44860;53.020;6.738;2023-07-13T13:55:55;23.30;62.50
59075;DHT22;44860;53.020;6.738;2023-07-13T13:58:21;23.30;62.20
59075;DHT22;44860;53.020;6.738;2023-07-13T14:00:47;23.50;60.70
59075;DHT22;44860;53.020;6.738;2023-07-13T14:03:19;23.50;59.30
59075;DHT22;44860;53.020;6.738;2023-07-13T14:05:45;23.60;54.80
59075;DHT22;44860;53.020;6.738;2023-07-13T14:08:17;23.60;56.20
59075;DHT22;44860;53.020;6.738;2023-07-13T14:10:45;23.50;54.70
59075;DHT22;44860;53.020;6.738;2023-07-13T14:13:23;23.60;57.00
59075;DHT22;44860;53.020;6.738;2023-07-13T14:15:53;23.70;57.40
59075;DHT22;44860;53.020;6.738;2023-07-13T14:18:19;23.70;55.00
59075;DHT22;44860;53.020;6.738;2023-07-13T14:20:46;23.50;52.60
59075;DHT22;44860;53.020;6.738;2023-07-13T14:23:16;23.40;49.10
59075;DHT22;44860;53.020;6.738;2023-07-13T14:25:43;23.40;52.80
59075;DHT22;44860;53.020;6.738;2023-07-13T14:28:22;23.40;50.60
59075;DHT22;44860;53.020;6.738;2023-07-13T14:30:49;23.40;51.50
59075;DHT22;44860;53.020;6.738;2023-07-13T14:33:15;23.30;54.20
59075;DHT22;44860;53.020;6.738;2023-07-13T14:35:41;23.40;54.80
59075;DHT22;44860;53.020;6.738;2023-07-13T14:38:17;23.30;53.20
59075;DHT22;44860;53.020;6.738;2023-07-13T14:40:43;23.20;51.30
59075;DHT22;44860;53.020;6.738;2023-07-13T14:43:16;23.30;54.20
59075;DHT22;44860;53.020;6.738;2023-07-13T14:45:44;23.30;55.30
59075;DHT22;44860;53.020;6.738;2023-07-13T14:48:20;23.40;55.10
59075;DHT22;44860;53.020;6.738;2023-07-13T14:50:46;23.40;54.90
59075;DHT22;44860;53.020;6.738;2023-07-13T14:53:13;23.50;55.30
59075;DHT22;44860;53.020;6.738;2023-07-13T14:55:39;23.60;55.00
59075;DHT22;44860;53.020;6.738;2023-07-13T14:58:06;23.60;54.70
59075;DHT22;44860;53.020;6.738;2023-07-13T15:00:33;23.70;55.20
59075;DHT22;44860;53.020;6.738;2023-07-13T15:03:00;23.80;55.40
59075;DHT22;44860;53.020;6.738;2023-07-13T15:05:30;23.80;54.10
59075;DHT22;44860;53.020;6.738;2023-07-13T15:07:59;23.80;53.90
59075;DHT22;44860;53.020;6.738;2023-07-13T15:10:30;23.70;50.80
59075;DHT22;44860;53.020;6.738;2023-07-13T15:13:22;23.60;50.10
59075;DHT22;44860;53.020;6.738;2023-07-13T15:15:53;23.50;51.20
59075;DHT22;44860;53.020;6.738;2023-07-13T15:18:21;23.40;52.50
59075;DHT22;44860;53.020;6.738;2023-07-13T15:20:48;23.40;52.60
59075;DHT22;44860;53.020;6.738;2023-07-13T15:23:16;23.30;49.60
59075;DHT22;44860;53.020;6.738;2023-07-13T15:25:43;23.40;49.50
59075;DHT22;44860;53.020;6.738;2023-07-13T15:28:11;23.30;48.70
59075;DHT22;44860;53.020;6.738;2023-07-13T15:30:46;23.30;48.90
59075;DHT22;44860;53.020;6.738;2023-07-13T15:33:28;23.40;48.40
59075;DHT22;44860;53.020;6.738;2023-07-13T15:35:55;23.30;48.50
59075;DHT22;44860;53.020;6.738;2023-07-13T15:38:31;23.30;48.40
59075;DHT22;44860;53.020;6.738;2023-07-13T15:40:58;23.30;50.40
59075;DHT22;44860;53.020;6.738;2023-07-13T15:43:25;23.30;49.60
59075;DHT22;44860;53.020;6.738;2023-07-13T15:45:51;23.30;49.00
59075;DHT22;44860;53.020;6.738;2023-07-13T15:48:22;23.30;49.00
59075;DHT22;44860;53.020;6.738;2023-07-13T15:50:50;23.40;49.40
59075;DHT22;44860;53.020;6.738;2023-07-13T15:53:35;23.20;49.80
59075;DHT22;44860;53.020;6.738;2023-07-13T15:56:20;23.10;49.80
59075;DHT22;44860;53.020;6.738;2023-07-13T15:58:48;23.20;51.30
59075;DHT22;44860;53.020;6.738;2023-07-13T16:01:14;23.20;49.10
59075;DHT22;44860;53.020;6.738;2023-07-13T16:03:41;23.20;47.40
59075;DHT22;44860;53.020;6.738;2023-07-13T16:06:19;23.30;47.20
59075;DHT22;44860;53.020;6.738;2023-07-13T16:08:48;23.30;46.90
59075;DHT22;44860;53.020;6.738;2023-07-13T16:11:37;23.40;48.90
59075;DHT22;44860;53.020;6.738;2023-07-13T16:14:03;23.30;48.10
59075;DHT22;44860;53.020;6.738;2023-07-13T16:16:31;23.30;50.90
59075;DHT22;44860;53.020;6.738;2023-07-13T16:18:59;23.40;48.50
59075;DHT22;44860;53.020;6.738;2023-07-13T16:21:30;23.40;48.60
59075;DHT22;44860;53.020;6.738;2023-07-13T16:23:58;23.30;49.30
59075;DHT22;44860;53.020;6.738;2023-07-13T16:26:32;23.40;50.40
59075;DHT22;44860;53.020;6.738;2023-07-13T16:29:20;23.50;48.10
59075;DHT22;44860;53.020;6.738;2023-07-13T16:32:10;23.50;47.70
59075;DHT22;44860;53.020;6.738;2023-07-13T16:34:38;23.50;45.50
59075;DHT22;44860;53.020;6.738;2023-07-13T16:37:26;23.50;47.60